Time;durP1;ratioP1;P1;durP2;ratioP2;P2;SDS_P1;SDS_P2;PMS_P1;PMS_P2;Temp;Humidity;BMP_temperature;BMP_pressure;BME280_temperature;BME280_humidity;BME280_pressure;Samples;Min_cycle;Max_cycle;Signal;HPM_P1;HPM_P2
2023/07/20 00:01:25;;;;;;;2.57;2.27;;;13.30;93.60;;;;;;5046114;28;20347;-67
2023/07/20 00:03:57;;;;;;;3.40;3.00;;;13.20;93.50;;;;;;5041255;28;20291;-67
2023/07/20 00:06:24;;;;;;;4.27;3.10;;;13.20;93.50;;;;;;5036414;28;20032;-67
2023/07/20 00:08:54;;;;;;;7.83;3.60;;;13.10;93.80;;;;;;5045069;28;20295;-67
2023/07/20 00:11:20;;;;;;;4.70;3.37;;;13.00;94.00;;;;;;5046140;28;20306;-67
2023/07/20 00:13:45;;;;;;;3.77;3.43;;;12.90;94.20;;;;;;5038844;28;20289;-67
2023/07/20 00:16:11;;;;;;;3.87;3.17;;;12.80;94.20;;;;;;5044878;28;20098;-67
2023/07/20 00:18:37;;;;;;;5.57;3.40;;;12.80;94.30;;;;;;5050914;28;20037;-67
2023/07/20 00:21:02;;;;;;;3.90;3.40;;;12.70;94.40;;;;;;5036005;28;20716;-67
2023/07/20 00:23:28;;;;;;;5.27;4.77;;;12.70;94.70;;;;;;5042397;28;20041;-67
2023/07/20 00:25:54;;;;;;;4.97;3.73;;;12.70;94.90;;;;;;5043146;28;20584;-67
2023/07/20 00:28:20;;;;;;;5.13;3.70;;;12.60;94.90;;;;;;5052527;28;21049;-67
2023/07/20 00:30:45;;;;;;;5.27;4.03;;;12.60;94.90;;;;;;5044311;28;20041;-67
2023/07/20 00:33:12;;;;;;;4.00;3.60;;;12.50;95.00;;;;;;5045785;28;20048;-67
2023/07/20 00:35:40;;;;;;;4.93;3.63;;;12.50;95.00;;;;;;5048515;28;20065;-67
2023/07/20 00:38:06;;;;;;;4.03;3.63;;;12.40;95.20;;;;;;5048834;28;20302;-67
2023/07/20 00:40:37;;;;;;;4.60;3.53;;;12.40;95.30;;;;;;5042022;28;20279;-67
2023/07/20 00:43:03;;;;;;;7.07;3.73;;;12.30;95.10;;;;;;5042573;28;20280;-67
2023/07/20 00:45:30;;;;;;;4.83;3.87;;;12.30;95.50;;;;;;5044005;28;20283;-67
2023/07/20 00:47:56;;;;;;;4.20;3.70;;;12.20;95.30;;;;;;5042721;28;20932;-67
2023/07/20 00:50:22;;;;;;;4.70;3.40;;;12.20;95.30;;;;;;5050580;28;20310;-67
2023/07/20 00:52:49;;;;;;;5.70;3.83;;;12.10;95.70;;;;;;5038054;28;20699;-67
2023/07/20 00:55:15;;;;;;;5.10;4.40;;;12.10;96.00;;;;;;5038008;28;20280;-67
2023/07/20 00:57:41;;;;;;;5.27;4.50;;;12.00;96.00;;;;;;5049167;28;20300;-67
2023/07/20 01:00:08;;;;;;;5.63;4.30;;;11.90;95.60;;;;;;5045115;28;20050;-67
2023/07/20 01:02:33;;;;;;;4.83;4.20;;;11.90;95.80;;;;;;5047154;28;20291;-67
2023/07/20 01:04:59;;;;;;;4.63;3.47;;;11.80;95.60;;;;;;5037580;28;20295;-67
2023/07/20 01:07:27;;;;;;;4.40;4.00;;;11.80;95.90;;;;;;5031236;28;20050;-67
2023/07/20 01:10:18;;;;;;;5.37;4.00;;;11.70;96.00;;;;;;5037746;28;20287;-67
2023/07/20 01:12:47;;;;;;;3.83;3.43;;;11.70;95.70;;;;;;5049541;28;20310;-67
2023/07/20 01:15:14;;;;;;;3.93;3.33;;;11.60;95.80;;;;;;5050649;28;20358;-67
2023/07/20 01:17:40;;;;;;;4.53;3.50;;;11.50;96.00;;;;;;5050810;28;20692;-67
2023/07/20 01:20:08;;;;;;;4.07;3.53;;;11.50;96.70;;;;;;5052457;28;20347;-67
2023/07/20 01:23:00;;;;;;;3.87;3.47;;;11.50;97.30;;;;;;5050865;28;20108;-67
2023/07/20 01:25:41;;;;;;;4.63;3.10;;;11.50;97.00;;;;;;5019284;28;20292;-67
2023/07/20 01:28:44;;;;;;;3.70;3.23;;;11.40;97.00;;;;;;5032753;28;20366;-67
2023/07/20 01:31:31;;;;;;;4.00;3.30;;;11.40;96.70;;;;;;5030194;28;20279;-67
2023/07/20 01:34:00;;;;;;;5.73;3.20;;;11.40;96.80;;;;;;5045584;28;20280;-67
2023/07/20 01:36:29;;;;;;;3.60;3.30;;;11.30;96.80;;;;;;5048148;28;20283;-67
2023/07/20 01:38:56;;;;;;;4.50;3.17;;;11.30;96.90;;;;;;5049240;28;20382;-67
2023/07/20 01:41:22;;;;;;;4.03;2.93;;;11.40;96.80;;;;;;5048045;28;20285;-67
2023/07/20 01:43:48;;;;;;;4.37;3.53;;;11.40;97.00;;;;;;5042382;28;20302;-67
2023/07/20 01:46:14;;;;;;;4.80;3.53;;;11.40;97.00;;;;;;5049501;28;20300;-67
2023/07/20 01:48:39;;;;;;;4.60;3.57;;;11.40;97.20;;;;;;5037554;28;20975;-67
2023/07/20 01:51:05;;;;;;;3.77;3.37;;;11.50;97.30;;;;;;5054097;28;20049;-67
2023/07/20 01:53:31;;;;;;;6.20;3.30;;;11.50;97.20;;;;;;5037252;28;20111;-67
2023/07/20 01:55:57;;;;;;;3.73;3.33;;;11.50;97.20;;;;;;5038708;28;20055;-67
2023/07/20 01:58:23;;;;;;;4.77;3.40;;;11.50;97.30;;;;;;5001274;28;20125;-69
2023/07/20 02:00:48;;;;;;;3.50;3.20;;;11.40;97.00;;;;;;5014942;28;20312;-69
2023/07/20 02:03:14;;;;;;;4.07;3.30;;;11.40;96.90;;;;;;5000759;28;20069;-69
2023/07/20 02:05:42;;;;;;;4.50;3.40;;;11.30;97.10;;;;;;5010314;28;20037;-69
2023/07/20 02:08:08;;;;;;;4.50;3.43;;;11.30;97.50;;;;;;5000511;28;20053;-69
2023/07/20 02:10:34;;;;;;;5.70;3.70;;;11.30;97.10;;;;;;5003307;28;20290;-69
2023/07/20 02:12:59;;;;;;;5.37;3.63;;;11.20;97.20;;;;;;5014325;28;20034;-69
2023/07/20 02:15:25;;;;;;;4.07;3.67;;;11.20;96.90;;;;;;5013293;28;20096;-69
2023/07/20 02:17:51;;;;;;;4.10;3.03;;;11.10;96.90;;;;;;5012980;28;20116;-69
2023/07/20 02:20:17;;;;;;;3.27;2.70;;;11.10;96.90;;;;;;5020082;28;20578;-69
2023/07/20 02:22:43;;;;;;;3.92;2.90;;;11.00;96.80;;;;;;5017002;28;20052;-69
2023/07/20 02:25:09;;;;;;;5.57;3.17;;;11.00;96.80;;;;;;4998320;28;20046;-69
2023/07/20 02:27:35;;;;;;;5.93;3.50;;;10.90;96.90;;;;;;5005988;28;20045;-69
2023/07/20 02:30:01;;;;;;;4.05;3.10;;;10.90;97.00;;;;;;5012864;28;20382;-69
2023/07/20 02:32:28;;;;;;;4.20;3.22;;;10.80;96.80;;;;;;5020197;28;20454;-69
2023/07/20 02:34:53;;;;;;;5.53;3.47;;;10.80;96.90;;;;;;4999575;28;20041;-69
2023/07/20 02:37:19;;;;;;;3.90;3.30;;;10.80;96.90;;;;;;5001714;28;20774;-69
2023/07/20 02:39:45;;;;;;;4.17;3.67;;;10.70;96.90;;;;;;5010899;28;20041;-69
2023/07/20 02:42:11;;;;;;;5.00;3.27;;;10.70;97.00;;;;;;5003488;28;20088;-69
2023/07/20 02:44:36;;;;;;;5.40;3.37;;;10.70;96.90;;;;;;5006371;28;20108;-69
2023/07/20 02:47:02;;;;;;;4.00;3.10;;;10.60;96.90;;;;;;5001551;28;20057;-69
2023/07/20 02:49:28;;;;;;;6.37;3.40;;;10.60;96.90;;;;;;5010552;28;20041;-69
2023/07/20 02:51:54;;;;;;;5.63;3.97;;;10.60;96.80;;;;;;5005590;28;20048;-69
2023/07/20 02:54:21;;;;;;;4.75;3.70;;;10.60;96.90;;;;;;5005341;28;20038;-69
2023/07/20 02:56:46;;;;;;;5.10;3.42;;;10.50;97.00;;;;;;5028123;28;20049;-69
2023/07/20 02:59:12;;;;;;;5.60;3.97;;;10.50;97.00;;;;;;5027495;28;20359;-69
2023/07/20 03:01:38;;;;;;;4.83;3.60;;;10.50;96.80;;;;;;5040513;28;20175;-69
2023/07/20 03:04:04;;;;;;;4.03;3.00;;;10.40;97.00;;;;;;5055294;28;20056;-69
2023/07/20 03:06:30;;;;;;;6.00;3.77;;;10.40;97.00;;;;;;5048516;28;20037;-69
2023/07/20 03:08:56;;;;;;;6.07;3.88;;;10.40;97.20;;;;;;5039681;28;20049;-69
2023/07/20 03:11:22;;;;;;;4.38;3.50;;;10.40;97.40;;;;;;5048904;28;20043;-69
2023/07/20 03:13:48;;;;;;;6.00;3.67;;;10.40;97.40;;;;;;5050566;28;20037;-69
2023/07/20 03:16:17;;;;;;;5.22;3.50;;;10.30;97.40;;;;;;5036021;28;20064;-69
2023/07/20 03:18:43;;;;;;;7.35;3.50;;;10.30;97.20;;;;;;5035625;28;20369;-69
2023/07/20 03:21:13;;;;;;;3.43;3.13;;;10.30;97.60;;;;;;5045772;28;20062;-69
2023/07/20 03:23:40;;;;;;;4.43;3.35;;;10.30;97.90;;;;;;5051987;28;20036;-69
2023/07/20 03:26:08;;;;;;;8.43;4.05;;;10.30;97.90;;;;;;5046856;28;20132;-69
2023/07/20 03:28:34;;;;;;;5.32;4.18;;;10.30;98.10;;;;;;5047788;28;20040;-69
2023/07/20 03:31:00;;;;;;;5.13;3.92;;;10.30;97.80;;;;;;5047602;28;20053;-69
2023/07/20 03:33:27;;;;;;;5.37;4.00;;;10.30;97.70;;;;;;5031454;28;20037;-69
2023/07/20 03:35:53;;;;;;;4.95;3.78;;;10.20;97.70;;;;;;5039488;28;20041;-69
2023/07/20 03:38:20;;;;;;;5.80;3.87;;;10.20;97.60;;;;;;5045546;28;20052;-69
2023/07/20 03:40:49;;;;;;;8.70;4.22;;;10.20;97.60;;;;;;5047893;28;20587;-69
2023/07/20 03:43:15;;;;;;;7.05;4.20;;;10.10;97.60;;;;;;5030162;28;20036;-69
2023/07/20 03:45:41;;;;;;;4.03;3.40;;;10.10;97.70;;;;;;5052100;28;20049;-69
2023/07/20 03:48:06;;;;;;;5.27;4.03;;;10.10;97.80;;;;;;5046488;28;20048;-69
2023/07/20 03:50:33;;;;;;;5.23;3.73;;;10.10;97.70;;;;;;5048304;28;20052;-69
2023/07/20 03:52:58;;;;;;;6.88;4.53;;;10.10;98.30;;;;;;5048381;28;20044;-69
2023/07/20 03:55:24;;;;;;;6.67;4.90;;;10.20;98.70;;;;;;5054986;28;20078;-69
2023/07/20 03:57:50;;;;;;;4.97;4.47;;;10.20;98.60;;;;;;5043823;28;20092;-69
2023/07/20 04:00:17;;;;;;;5.65;4.47;;;10.30;98.60;;;;;;5066759;28;20046;-68
2023/07/20 04:02:43;;;;;;;6.25;4.45;;;10.30;98.70;;;;;;5026950;28;20120;-68
2023/07/20 04:05:09;;;;;;;6.17;4.50;;;10.40;98.70;;;;;;5055069;28;20175;-68
2023/07/20 04:07:34;;;;;;;6.63;4.30;;;10.50;98.80;;;;;;5051953;28;20068;-69
2023/07/20 04:10:00;;;;;;;4.37;3.93;;;10.50;98.70;;;;;;5049574;28;20045;-69
2023/07/20 04:12:26;;;;;;;5.77;4.50;;;10.70;98.40;;;;;;5038339;28;20049;-69
2023/07/20 04:14:51;;;;;;;5.73;4.47;;;10.80;98.80;;;;;;5046944;28;20127;-69
2023/07/20 04:17:18;;;;;;;7.10;4.40;;;10.90;98.60;;;;;;5032277;28;20040;-68
2023/07/20 04:19:44;;;;;;;4.50;4.10;;;11.00;99.10;;;;;;5048870;28;20538;-69
2023/07/20 04:22:10;;;;;;;6.43;4.50;;;11.10;98.80;;;;;;5051238;28;20124;-69
2023/07/20 04:24:35;;;;;;;5.57;4.87;;;11.10;99.00;;;;;;5051484;28;20037;-69
2023/07/20 04:27:01;;;;;;;5.50;4.20;;;11.20;98.90;;;;;;5050927;28;20323;-69
2023/07/20 04:29:27;;;;;;;5.53;3.93;;;11.20;98.60;;;;;;5051293;28;20051;-69
2023/07/20 04:31:53;;;;;;;5.67;4.10;;;11.20;98.40;;;;;;5043717;28;20041;-69
2023/07/20 04:34:18;;;;;;;4.70;4.23;;;11.20;98.40;;;;;;5045033;28;20036;-69
2023/07/20 04:36:44;;;;;;;6.67;4.17;;;11.20;98.30;;;;;;5048386;28;20046;-69
2023/07/20 04:39:10;;;;;;;7.80;4.63;;;11.30;98.30;;;;;;5033036;28;20073;-69
2023/07/20 04:41:36;;;;;;;6.00;4.80;;;11.30;98.00;;;;;;5043277;28;20041;-69
2023/07/20 04:44:02;;;;;;;7.17;4.07;;;11.40;98.10;;;;;;5032572;28;20045;-69
2023/07/20 04:46:27;;;;;;;5.67;4.70;;;11.40;98.10;;;;;;5052486;28;20090;-69
2023/07/20 04:48:53;;;;;;;6.73;4.93;;;11.50;98.10;;;;;;5040690;28;20318;-69
2023/07/20 04:51:20;;;;;;;8.17;4.77;;;11.60;98.40;;;;;;5039532;28;20037;-69
2023/07/20 04:53:49;;;;;;;6.47;4.60;;;11.70;98.50;;;;;;5034023;28;20033;-69
2023/07/20 04:56:15;;;;;;;5.37;4.60;;;11.90;98.30;;;;;;5046774;28;20304;-69
2023/07/20 04:58:41;;;;;;;6.27;4.60;;;12.00;98.20;;;;;;5017688;28;20288;-69
2023/07/20 05:01:08;;;;;;;6.23;4.50;;;12.10;98.30;;;;;;5008739;28;21096;-69
2023/07/20 05:03:33;;;;;;;6.10;4.40;;;12.20;98.40;;;;;;5014575;28;20096;-69
2023/07/20 05:05:59;;;;;;;6.20;4.47;;;12.30;98.20;;;;;;5016392;28;20315;-69
2023/07/20 05:08:25;;;;;;;6.37;4.47;;;12.60;98.30;;;;;;5013092;28;20108;-69
2023/07/20 05:10:51;;;;;;;5.30;3.80;;;13.10;99.40;;;;;;5003246;28;20497;-69
2023/07/20 05:13:17;;;;;;;5.33;3.40;;;14.10;99.40;;;;;;5001160;28;20107;-69
2023/07/20 05:15:42;;;;;;;6.83;3.70;;;15.00;97.20;;;;;;5007485;28;20572;-69
2023/07/20 05:18:08;;;;;;;4.43;3.63;;;15.80;95.20;;;;;;5009300;28;20417;-69
2023/07/20 05:20:37;;;;;;;5.60;3.27;;;16.60;92.70;;;;;;5013865;28;20049;-69
2023/07/20 05:23:03;;;;;;;4.83;3.77;;;17.40;89.20;;;;;;5022901;28;20408;-69
2023/07/20 05:25:28;;;;;;;3.67;3.00;;;17.80;86.00;;;;;;5013539;28;20284;-69
2023/07/20 05:27:55;;;;;;;4.90;3.20;;;18.10;84.50;;;;;;4992488;28;20038;-68
2023/07/20 05:30:21;;;;;;;3.10;2.27;;;18.10;82.70;;;;;;5008947;28;20046;-69
2023/07/20 05:32:50;;;;;;;3.60;2.60;;;17.80;82.20;;;;;;5010502;28;20347;-69
2023/07/20 05:35:17;;;;;;;3.27;2.63;;;17.30;82.50;;;;;;5004316;28;20112;-69
2023/07/20 05:37:44;;;;;;;4.03;2.50;;;16.90;83.80;;;;;;5011707;28;20285;-70
2023/07/20 05:40:12;;;;;;;3.43;2.23;;;16.60;85.40;;;;;;4996237;28;20635;-70
2023/07/20 05:42:38;;;;;;;3.07;2.40;;;16.60;86.00;;;;;;5013152;28;20284;-70
2023/07/20 05:45:04;;;;;;;7.17;2.50;;;16.80;86.40;;;;;;5005727;28;20276;-69
2023/07/20 05:47:30;;;;;;;4.43;2.53;;;16.90;86.40;;;;;;5014930;28;20811;-69
2023/07/20 05:49:56;;;;;;;4.77;2.47;;;17.20;84.50;;;;;;5002832;28;20392;-69
2023/07/20 05:52:22;;;;;;;6.20;2.03;;;17.60;84.10;;;;;;5015455;28;20284;-69
2023/07/20 05:54:48;;;;;;;3.13;1.80;;;18.00;83.20;;;;;;5017214;28;20273;-70
2023/07/20 05:57:13;;;;;;;3.17;1.67;;;18.50;80.70;;;;;;5040591;28;20057;-68
2023/07/20 05:59:40;;;;;;;5.67;1.80;;;18.60;78.80;;;;;;5042165;28;20041;-67
2023/07/20 06:02:08;;;;;;;6.03;1.60;;;18.50;77.60;;;;;;5045549;28;20425;-67
2023/07/20 06:04:33;;;;;;;4.03;1.20;;;18.20;77.80;;;;;;5047568;28;20647;-67
2023/07/20 06:06:59;;;;;;;3.20;1.40;;;17.70;77.50;;;;;;5035739;28;20307;-67
2023/07/20 06:09:25;;;;;;;2.70;1.40;;;17.20;78.80;;;;;;5035466;28;20044;-67
2023/07/20 06:11:50;;;;;;;2.63;1.57;;;16.90;79.70;;;;;;5043324;28;20033;-67
2023/07/20 06:14:16;;;;;;;4.87;1.60;;;16.60;80.30;;;;;;5037893;28;20451;-67
2023/07/20 06:16:42;;;;;;;3.87;1.57;;;16.40;81.90;;;;;;5047450;28;20037;-67
2023/07/20 06:19:07;;;;;;;3.77;1.37;;;16.50;83.00;;;;;;5031769;28;20151;-67
2023/07/20 06:21:33;;;;;;;4.47;1.20;;;16.70;83.40;;;;;;5042077;28;20033;-67
2023/07/20 06:23:59;;;;;;;3.37;0.90;;;17.00;82.90;;;;;;5030156;28;20046;-67
2023/07/20 06:26:25;;;;;;;2.77;0.93;;;17.30;81.00;;;;;;5030339;28;20045;-68
2023/07/20 06:28:50;;;;;;;2.00;1.00;;;17.40;79.60;;;;;;5036607;28;20068;-68
2023/07/20 06:31:16;;;;;;;3.60;0.70;;;17.30;80.00;;;;;;5047219;28;20629;-68
2023/07/20 06:33:42;;;;;;;1.90;0.60;;;17.40;81.00;;;;;;5039350;28;20037;-68
2023/07/20 06:36:08;;;;;;;3.13;0.90;;;17.60;78.60;;;;;;5043533;28;20287;-68
2023/07/20 06:38:33;;;;;;;4.33;0.97;;;17.90;75.70;;;;;;5049303;28;20056;-68
2023/07/20 06:40:59;;;;;;;3.47;0.80;;;18.00;76.10;;;;;;5050458;28;20044;-68
2023/07/20 06:43:25;;;;;;;3.53;0.73;;;18.30;76.10;;;;;;5032314;28;20128;-67
2023/07/20 06:45:54;;;;;;;5.30;0.70;;;18.80;74.00;;;;;;5048683;28;20459;-67
2023/07/20 06:48:21;;;;;;;1.87;0.53;;;19.20;71.00;;;;;;5032836;28;20428;-67
2023/07/20 06:50:47;;;;;;;3.07;1.03;;;19.60;69.80;;;;;;5046193;28;20764;-67
2023/07/20 06:53:13;;;;;;;2.67;0.53;;;19.70;66.10;;;;;;5043837;28;20284;-68
2023/07/20 06:55:39;;;;;;;4.03;0.60;;;19.80;67.50;;;;;;5044957;28;20044;-68
2023/07/20 06:58:05;;;;;;;2.00;0.43;;;19.70;66.50;;;;;;5014362;28;1155733;-68
2023/07/20 07:00:30;;;;;;;3.80;0.40;;;19.80;65.80;;;;;;5055167;28;20096;-68
2023/07/20 07:02:56;;;;;;;3.03;0.50;;;19.70;64.40;;;;;;5042906;28;20144;-68
2023/07/20 07:05:22;;;;;;;1.90;0.57;;;19.70;65.30;;;;;;5046607;28;20049;-68
2023/07/20 07:07:48;;;;;;;2.90;0.60;;;19.80;64.60;;;;;;5051427;28;20052;-68
2023/07/20 07:10:14;;;;;;;5.07;0.80;;;19.70;64.10;;;;;;5042226;28;20037;-68
2023/07/20 07:12:40;;;;;;;4.57;0.60;;;19.60;65.20;;;;;;5041681;28;20318;-68
2023/07/20 07:15:07;;;;;;;2.90;0.60;;;19.50;64.50;;;;;;5042813;28;20672;-67
2023/07/20 07:17:33;;;;;;;2.53;0.53;;;19.30;65.60;;;;;;5042593;28;20286;-68
2023/07/20 07:19:59;;;;;;;3.97;0.53;;;19.30;66.50;;;;;;5035626;28;20287;-68
2023/07/20 07:22:25;;;;;;;2.53;0.70;;;19.20;67.10;;;;;;5045400;28;20044;-68
2023/07/20 07:24:50;;;;;;;2.03;0.50;;;19.00;66.40;;;;;;5048206;28;20296;-69
2023/07/20 07:27:16;;;;;;;1.67;0.60;;;19.00;67.10;;;;;;5052522;28;20309;-68
2023/07/20 07:29:46;;;;;;;1.97;0.53;;;18.80;67.50;;;;;;5040284;28;20041;-69
2023/07/20 07:32:12;;;;;;;3.27;0.90;;;18.70;66.00;;;;;;5031859;28;20038;-69
2023/07/20 07:34:38;;;;;;;4.70;0.97;;;18.50;66.40;;;;;;5046298;28;20779;-69
2023/07/20 07:37:04;;;;;;;2.47;0.90;;;18.20;67.40;;;;;;5060040;28;20330;-70
2023/07/20 07:39:31;;;;;;;3.63;1.30;;;17.90;67.70;;;;;;5051651;28;21217;-69
2023/07/20 07:41:57;;;;;;;5.30;1.33;;;17.70;68.10;;;;;;5050474;28;20283;-69
2023/07/20 07:44:23;;;;;;;3.57;1.27;;;17.60;68.90;;;;;;5045862;28;20695;-70
2023/07/20 07:46:50;;;;;;;3.00;1.40;;;17.70;69.40;;;;;;5049809;28;20045;-69
2023/07/20 07:49:18;;;;;;;2.80;0.80;;;17.90;69.40;;;;;;5043511;28;20345;-69
2023/07/20 07:51:44;;;;;;;3.30;1.60;;;17.90;67.00;;;;;;5051908;28;20811;-70
2023/07/20 07:54:10;;;;;;;3.60;1.40;;;17.80;67.10;;;;;;5048069;28;20298;-70
2023/07/20 07:56:35;;;;;;;4.80;1.00;;;17.70;67.20;;;;;;5043788;28;20141;-70
2023/07/20 07:59:02;;;;;;;2.87;1.40;;;17.40;65.70;;;;;;5031604;28;20070;-70
2023/07/20 08:01:28;;;;;;;3.60;0.93;;;17.30;65.30;;;;;;5027042;28;20041;-70
2023/07/20 08:03:54;;;;;;;4.50;1.10;;;17.40;65.90;;;;;;5052508;28;20295;-70
2023/07/20 08:06:20;;;;;;;4.40;1.43;;;17.50;64.30;;;;;;5040618;28;20311;-69
2023/07/20 08:08:46;;;;;;;2.97;1.10;;;17.70;64.70;;;;;;5055966;28;20120;-70
2023/07/20 08:11:11;;;;;;;1.80;1.03;;;17.90;64.40;;;;;;5056328;28;20032;-70
2023/07/20 08:13:37;;;;;;;2.50;1.10;;;18.10;64.50;;;;;;5048000;28;20040;-69
2023/07/20 08:16:03;;;;;;;3.80;1.03;;;18.20;63.20;;;;;;5054335;28;20044;-71
2023/07/20 08:18:29;;;;;;;3.77;1.30;;;18.30;62.10;;;;;;5049258;28;20136;-69
2023/07/20 08:20:55;;;;;;;3.97;1.30;;;18.30;61.00;;;;;;5045666;28;20047;-70
2023/07/20 08:23:21;;;;;;;2.73;1.00;;;18.30;62.50;;;;;;5057049;28;20543;-70
2023/07/20 08:25:46;;;;;;;2.77;1.10;;;18.50;62.30;;;;;;5039316;28;20048;-70
2023/07/20 08:28:14;;;;;;;3.57;1.40;;;18.60;62.30;;;;;;5050168;28;20862;-70
2023/07/20 08:30:45;;;;;;;3.93;1.00;;;18.70;61.40;;;;;;5054253;28;20044;-71
2023/07/20 08:33:13;;;;;;;2.30;1.00;;;18.90;62.40;;;;;;5052869;28;20379;-70
2023/07/20 08:35:40;;;;;;;2.70;1.20;;;19.00;59.50;;;;;;5044646;28;20315;-69
2023/07/20 08:38:07;;;;;;;3.43;1.20;;;19.10;60.70;;;;;;5045491;28;20345;-70
2023/07/20 08:40:38;;;;;;;5.63;1.17;;;19.30;61.00;;;;;;5039184;28;20299;-69
2023/07/20 08:43:04;;;;;;;3.53;1.10;;;19.50;60.50;;;;;;5028402;28;20370;-69
2023/07/20 08:45:34;;;;;;;3.97;1.10;;;19.70;59.20;;;;;;5023308;28;20301;-69
2023/07/20 08:48:03;;;;;;;6.03;1.60;;;19.80;59.10;;;;;;5032792;28;20304;-69
2023/07/20 08:50:32;;;;;;;4.03;1.40;;;19.80;59.40;;;;;;5049660;28;20044;-69
2023/07/20 08:52:59;;;;;;;3.40;1.20;;;19.80;58.60;;;;;;5042853;28;20131;-69
2023/07/20 08:55:27;;;;;;;3.97;1.47;;;19.60;58.60;;;;;;5041566;28;20445;-70
2023/07/20 08:58:00;;;;;;;3.07;1.27;;;19.40;59.20;;;;;;5045745;28;20054;-70
2023/07/20 09:00:27;;;;;;;6.80;1.70;;;19.40;58.80;;;;;;5030506;28;20509;-67
2023/07/20 09:02:54;;;;;;;2.43;1.10;;;19.60;59.00;;;;;;5032020;28;20128;-67
2023/07/20 09:05:20;;;;;;;4.03;1.47;;;19.80;59.00;;;;;;5042595;28;20040;-67
2023/07/20 09:07:47;;;;;;;1.97;1.00;;;19.90;59.20;;;;;;5045396;28;20041;-67
2023/07/20 09:10:13;;;;;;;3.63;1.80;;;20.10;59.30;;;;;;5035038;28;20128;-67
2023/07/20 09:12:41;;;;;;;2.80;1.30;;;20.30;58.70;;;;;;5044910;28;20079;-68
2023/07/20 09:15:08;;;;;;;5.70;1.30;;;20.40;58.00;;;;;;5044457;28;20121;-68
2023/07/20 09:17:34;;;;;;;4.47;1.50;;;20.40;56.70;;;;;;5043935;28;20044;-68
2023/07/20 09:20:07;;;;;;;3.40;1.30;;;20.30;55.80;;;;;;5044187;28;20025;-68
2023/07/20 09:22:34;;;;;;;6.03;1.40;;;20.50;55.40;;;;;;5040175;28;20040;-68
2023/07/20 09:25:00;;;;;;;4.37;1.47;;;20.70;56.40;;;;;;5038222;28;20477;-68
2023/07/20 09:27:39;;;;;;;3.90;1.10;;;20.90;56.30;;;;;;5022990;28;20036;-67
2023/07/20 09:30:11;;;;;;;4.97;1.23;;;21.20;56.70;;;;;;5041741;28;20036;-68
2023/07/20 09:32:45;;;;;;;5.73;1.70;;;21.20;56.00;;;;;;5039469;28;20102;-68
2023/07/20 09:35:18;;;;;;;4.25;1.40;;;21.20;56.00;;;;;;5040736;28;20896;-68
2023/07/20 09:37:55;;;;;;;5.47;1.33;;;21.10;55.30;;;;;;5043272;28;20045;-68
2023/07/20 09:40:21;;;;;;;2.87;1.70;;;20.90;55.70;;;;;;5043043;28;20041;-68
2023/07/20 09:42:48;;;;;;;5.60;1.30;;;20.90;56.40;;;;;;5040303;28;20486;-68
2023/07/20 09:45:14;;;;;;;3.50;1.60;;;20.90;57.10;;;;;;5047233;28;20055;-68
2023/07/20 09:47:40;;;;;;;3.37;1.20;;;21.00;56.80;;;;;;5047574;28;20037;-68
2023/07/20 09:50:10;;;;;;;4.53;1.30;;;21.10;56.90;;;;;;5051065;28;20041;-68
2023/07/20 09:52:44;;;;;;;4.63;1.27;;;21.20;56.70;;;;;;5037702;28;20045;-68
2023/07/20 09:55:11;;;;;;;3.87;1.40;;;21.10;55.50;;;;;;5051026;28;20122;-68
2023/07/20 09:57:37;;;;;;;3.60;1.07;;;21.10;55.60;;;;;;5043044;28;20052;-68
2023/07/20 10:00:11;;;;;;;3.03;1.37;;;21.10;55.80;;;;;;5043058;28;20060;-68
2023/07/20 10:02:43;;;;;;;4.70;1.37;;;21.00;55.30;;;;;;5045932;28;20045;-68
2023/07/20 10:05:10;;;;;;;3.27;1.40;;;20.90;55.20;;;;;;5042609;28;20045;-68
2023/07/20 10:07:45;;;;;;;2.27;1.20;;;20.80;55.30;;;;;;5043952;28;20064;-68
2023/07/20 10:10:13;;;;;;;2.45;1.30;;;20.80;55.80;;;;;;5053967;28;20033;-67
2023/07/20 10:12:40;;;;;;;4.03;1.33;;;20.80;55.90;;;;;;5032586;28;20123;-67
2023/07/20 10:15:11;;;;;;;3.10;1.40;;;20.80;55.80;;;;;;5033566;28;20037;-67
2023/07/20 10:17:58;;;;;;;3.13;1.00;;;21.00;55.60;;;;;;5024253;28;20134;-67
2023/07/20 10:20:26;;;;;;;2.97;1.67;;;21.20;55.70;;;;;;5025882;28;20041;-68
2023/07/20 10:22:54;;;;;;;3.03;1.37;;;21.30;54.90;;;;;;5020849;28;20049;-68
2023/07/20 10:25:22;;;;;;;3.73;1.27;;;21.40;54.40;;;;;;5043066;28;20110;-68
2023/07/20 10:27:48;;;;;;;4.40;1.00;;;21.60;54.30;;;;;;5019725;28;20044;-68
2023/07/20 10:30:14;;;;;;;5.13;1.23;;;21.60;53.90;;;;;;5045909;28;20047;-68
2023/07/20 10:32:42;;;;;;;2.00;1.00;;;21.70;53.00;;;;;;5046193;28;20086;-68
2023/07/20 10:35:18;;;;;;;4.37;1.27;;;22.00;53.40;;;;;;5037474;28;20060;-68
2023/07/20 10:37:54;;;;;;;4.67;1.50;;;22.10;51.50;;;;;;5050993;28;20110;-68
2023/07/20 10:40:38;;;;;;;3.83;1.37;;;21.80;52.00;;;;;;5046797;28;20053;-67
2023/07/20 10:43:08;;;;;;;3.63;1.40;;;21.60;53.20;;;;;;5047309;28;20040;-67
2023/07/20 10:45:41;;;;;;;5.37;1.40;;;21.30;53.50;;;;;;5051880;28;20455;-67
2023/07/20 10:48:34;;;;;;;4.43;1.07;;;21.10;54.20;;;;;;5047325;28;20142;-68
2023/07/20 10:51:16;;;;;;;3.73;1.40;;;21.00;56.10;;;;;;5050512;28;20052;-67
2023/07/20 10:53:42;;;;;;;3.60;1.53;;;21.20;54.80;;;;;;5037142;28;20069;-68
2023/07/20 10:56:12;;;;;;;4.17;1.60;;;21.30;53.60;;;;;;5035401;28;20488;-68
2023/07/20 10:58:37;;;;;;;3.83;1.50;;;21.50;54.30;;;;;;5042125;28;20755;-68
2023/07/20 11:01:05;;;;;;;2.97;0.87;;;21.80;54.30;;;;;;5027557;28;20112;-68
2023/07/20 11:03:36;;;;;;;2.10;0.87;;;22.00;50.30;;;;;;5043375;28;20523;-68
2023/07/20 11:06:24;;;;;;;3.33;1.10;;;21.80;50.30;;;;;;5056990;28;20068;-68
2023/07/20 11:09:16;;;;;;;4.10;1.43;;;21.50;49.70;;;;;;5040528;28;20076;-68
2023/07/20 11:11:47;;;;;;;4.17;1.10;;;21.40;52.00;;;;;;5047270;28;20504;-67
2023/07/20 11:14:26;;;;;;;2.87;1.03;;;21.60;52.30;;;;;;5051045;28;20095;-67
2023/07/20 11:16:53;;;;;;;2.10;1.20;;;22.00;53.00;;;;;;5048567;28;20036;-68
2023/07/20 11:19:23;;;;;;;2.67;1.23;;;22.40;49.70;;;;;;5058732;28;20440;-68
2023/07/20 11:21:57;;;;;;;3.93;1.10;;;22.70;49.40;;;;;;5030083;28;20033;-68
2023/07/20 11:24:23;;;;;;;3.30;1.00;;;22.70;49.60;;;;;;5030185;28;20041;-68
2023/07/20 11:26:51;;;;;;;4.00;1.27;;;22.60;47.40;;;;;;5051030;28;20396;-68
2023/07/20 11:29:22;;;;;;;2.97;1.43;;;22.30;49.40;;;;;;5033681;28;20091;-68
2023/07/20 11:31:48;;;;;;;3.37;1.13;;;22.10;50.70;;;;;;5026586;28;20040;-69
2023/07/20 11:34:17;;;;;;;6.37;1.27;;;21.90;51.00;;;;;;5042143;28;20049;-69
2023/07/20 11:36:48;;;;;;;3.73;1.10;;;21.90;51.30;;;;;;5046831;28;20076;-71
2023/07/20 11:39:15;;;;;;;1.93;0.83;;;22.00;50.60;;;;;;5027667;28;20048;-70
2023/07/20 11:41:49;;;;;;;4.03;1.13;;;22.10;50.60;;;;;;5043211;28;20071;-70
2023/07/20 11:44:20;;;;;;;3.17;1.05;;;22.10;51.00;;;;;;5046827;28;20038;-70
2023/07/20 11:46:46;;;;;;;2.93;0.93;;;22.00;50.70;;;;;;5044973;28;20116;-70
2023/07/20 11:49:12;;;;;;;3.17;0.80;;;21.90;51.80;;;;;;5045517;28;20159;-69
2023/07/20 11:51:40;;;;;;;5.50;1.00;;;22.10;49.80;;;;;;5038182;28;20055;-69
2023/07/20 11:54:08;;;;;;;2.50;0.73;;;22.30;49.10;;;;;;5043865;28;20080;-70
2023/07/20 11:56:34;;;;;;;1.10;0.40;;;22.30;47.50;;;;;;5045972;28;20047;-70
2023/07/20 11:59:02;;;;;;;2.40;0.80;;;22.30;47.60;;;;;;5048617;28;20131;-70
2023/07/20 12:01:31;;;;;;;2.53;0.67;;;22.40;47.30;;;;;;5041412;28;20096;-69
2023/07/20 12:03:57;;;;;;;4.70;1.43;;;22.50;48.40;;;;;;5035213;28;20044;-69
2023/07/20 12:06:25;;;;;;;2.13;1.03;;;22.70;48.90;;;;;;5043556;28;20052;-70
2023/07/20 12:08:55;;;;;;;2.50;1.00;;;22.70;49.00;;;;;;5023491;28;20494;-70
2023/07/20 12:11:38;;;;;;;4.13;1.03;;;22.50;49.00;;;;;;5035070;28;20521;-70
2023/07/20 12:14:08;;;;;;;3.27;0.90;;;22.30;48.00;;;;;;5045380;28;20409;-70
2023/07/20 12:16:37;;;;;;;3.17;0.80;;;22.00;47.80;;;;;;5051771;28;20040;-70
2023/07/20 12:19:08;;;;;;;3.90;0.93;;;21.60;47.60;;;;;;5055286;28;20044;-70
2023/07/20 12:21:36;;;;;;;3.87;1.30;;;21.60;49.20;;;;;;5053913;28;20037;-70
2023/07/20 12:24:03;;;;;;;4.73;1.03;;;21.80;49.20;;;;;;5040971;28;20052;-69
2023/07/20 12:26:30;;;;;;;2.53;0.90;;;21.90;48.70;;;;;;5044260;28;20063;-69
2023/07/20 12:28:56;;;;;;;2.73;0.67;;;21.80;48.50;;;;;;5053690;28;20045;-69
2023/07/20 12:31:24;;;;;;;2.70;0.70;;;21.80;48.90;;;;;;5051324;28;20119;-70
2023/07/20 12:33:50;;;;;;;2.00;0.80;;;22.00;48.60;;;;;;5044256;28;20397;-69
2023/07/20 12:36:17;;;;;;;3.00;0.60;;;22.20;47.90;;;;;;5051854;28;20107;-69
2023/07/20 12:38:44;;;;;;;1.93;0.77;;;22.40;48.50;;;;;;5034901;28;20044;-70
2023/07/20 12:41:14;;;;;;;3.63;0.90;;;22.50;46.80;;;;;;5048542;28;20124;-69
2023/07/20 12:43:43;;;;;;;3.63;1.03;;;22.60;48.00;;;;;;5042150;28;20037;-71
2023/07/20 12:46:13;;;;;;;1.67;0.80;;;22.30;46.50;;;;;;5041419;28;20049;-70
2023/07/20 12:48:41;;;;;;;2.50;0.50;;;21.90;45.40;;;;;;5047194;28;20079;-70
2023/07/20 12:51:08;;;;;;;2.00;0.40;;;21.70;46.70;;;;;;5042259;28;20037;-71